createdAt,value
2023-01-30T00:00:03.889Z,49.08
2023-01-30T00:01:03.890Z,49.08
2023-01-30T00:02:03.912Z,49.49
2023-01-30T00:03:03.871Z,49.60
2023-01-30T00:04:03.845Z,49.18
2023-01-30T00:05:04.110Z,49.16
2023-01-30T00:06:03.816Z,48.85
2023-01-30T00:07:03.815Z,48.43
2023-01-30T00:08:03.808Z,48.43
2023-01-30T00:09:03.778Z,48.64
2023-01-30T00:10:03.778Z,48.64
2023-01-30T00:11:03.761Z,48.54
2023-01-30T00:12:03.741Z,48.02
2023-01-30T00:13:03.715Z,48.12
2023-01-30T00:14:03.699Z,47.91
2023-01-30T00:15:03.701Z,47.71
2023-01-30T00:16:03.712Z,47.60
2023-01-30T00:17:03.687Z,47.39
2023-01-30T00:18:03.642Z,47.50
2023-01-30T00:19:03.670Z,47.19
2023-01-30T00:20:03.639Z,46.98
2023-01-30T00:21:03.636Z,46.25
2023-01-30T00:22:03.591Z,46.15
2023-01-30T00:23:03.587Z,46.46
2023-01-30T00:24:03.563Z,46.15
2023-01-30T00:25:04.558Z,46.04
2023-01-30T00:26:03.542Z,45.73
2023-01-30T00:27:03.536Z,45.84
2023-01-30T00:28:03.519Z,45.94
2023-01-30T00:29:03.509Z,45.42
2023-01-30T00:30:03.868Z,45.53
2023-01-30T00:31:03.483Z,45.11
2023-01-30T00:32:03.486Z,44.90
2023-01-30T00:33:03.452Z,45.01
2023-01-30T00:34:03.432Z,45.01
2023-01-30T00:35:03.438Z,44.70
2023-01-30T00:36:03.428Z,44.70
2023-01-30T00:37:08.343Z,44.57
2023-01-30T00:38:04.383Z,44.47
2023-01-30T00:39:03.382Z,44.78
2023-01-30T00:40:03.377Z,44.89
2023-01-30T00:41:03.345Z,45.30
2023-01-30T00:42:03.325Z,45.40
2023-01-30T00:43:03.312Z,44.78
2023-01-30T00:44:03.344Z,44.57
2023-01-30T00:45:03.324Z,44.57
2023-01-30T00:46:03.516Z,44.57
2023-01-30T00:47:03.263Z,44.78
2023-01-30T00:48:03.255Z,44.89
2023-01-30T00:49:03.223Z,44.78
2023-01-30T00:50:03.233Z,44.68
2023-01-30T00:51:03.217Z,44.68
2023-01-30T00:52:03.184Z,44.47
2023-01-30T00:53:03.192Z,44.57
2023-01-30T00:54:03.166Z,44.68
2023-01-30T00:55:03.180Z,44.57
2023-01-30T00:56:03.143Z,44.47
2023-01-30T00:57:03.121Z,44.34
2023-01-30T00:58:03.116Z,44.65
2023-01-30T00:59:03.100Z,44.24
2023-01-30T01:00:03.109Z,44.45
2023-01-30T01:01:03.069Z,44.45
2023-01-30T01:02:03.126Z,44.24
2023-01-30T01:03:03.112Z,43.83
2023-01-30T01:04:03.042Z,43.83
2023-01-30T01:05:03.047Z,43.93
2023-01-30T01:06:03.005Z,43.83
2023-01-30T01:07:03.001Z,43.52
2023-01-30T01:08:02.984Z,43.31
2023-01-30T01:09:02.973Z,43.41
2023-01-30T01:10:02.988Z,43.41
2023-01-30T01:11:02.935Z,43.31
2023-01-30T01:12:02.933Z,43.10
2023-01-30T01:13:02.904Z,42.79
2023-01-30T01:14:02.928Z,43.00
2023-01-30T01:15:02.903Z,43.41
2023-01-30T01:16:02.935Z,43.41
2023-01-30T01:17:02.856Z,43.52
2023-01-30T01:18:02.846Z,43.52
2023-01-30T01:19:02.838Z,43.83
2023-01-30T01:20:02.863Z,43.73
2023-01-30T01:21:02.805Z,43.91
2023-01-30T01:22:02.819Z,43.93
2023-01-30T01:23:02.775Z,44.12
2023-01-30T01:24:02.775Z,44.12
2023-01-30T01:25:02.793Z,44.12
2023-01-30T01:26:02.769Z,44.22
2023-01-30T01:27:02.725Z,44.32
2023-01-30T01:28:02.714Z,43.91
2023-01-30T01:29:02.721Z,44.12
2023-01-30T01:30:02.733Z,44.43
2023-01-30T01:31:02.757Z,44.64
2023-01-30T01:32:02.707Z,44.64
2023-01-30T01:33:02.644Z,44.64
2023-01-30T01:34:02.658Z,44.74
2023-01-30T01:35:02.614Z,44.74
2023-01-30T01:36:04.491Z,45.05
2023-01-30T01:37:02.590Z,45.15
2023-01-30T01:38:02.585Z,44.95
2023-01-30T01:39:02.592Z,45.05
2023-01-30T01:40:02.574Z,45.05
2023-01-30T01:41:02.555Z,45.15
2023-01-30T01:42:02.525Z,45.05
2023-01-30T01:43:02.515Z,44.74
2023-01-30T01:44:02.535Z,44.74
2023-01-30T01:45:02.500Z,44.74
2023-01-30T01:46:02.586Z,44.64
2023-01-30T01:47:02.466Z,44.74
2023-01-30T01:48:02.455Z,44.74
2023-01-30T01:49:02.437Z,44.95
2023-01-30T01:50:02.425Z,44.84
2023-01-30T01:51:02.444Z,44.84
2023-01-30T01:52:02.417Z,44.84
2023-01-30T01:53:02.383Z,44.74
2023-01-30T01:54:02.392Z,44.82
2023-01-30T01:55:02.379Z,44.93
2023-01-30T01:56:02.380Z,44.74
2023-01-30T01:57:02.329Z,44.62
2023-01-30T01:58:02.358Z,44.20
2023-01-30T01:59:02.304Z,43.99
2023-01-30T02:00:02.306Z,43.58
2023-01-30T02:01:02.340Z,43.27
2023-01-30T02:02:02.301Z,42.75
2023-01-30T02:03:02.254Z,42.65
2023-01-30T02:04:02.246Z,42.24
2023-01-30T02:05:02.263Z,41.82
2023-01-30T02:06:02.248Z,41.41
2023-01-30T02:07:02.219Z,41.09
2023-01-30T02:08:02.207Z,41.22
2023-01-30T02:09:02.190Z,40.78
2023-01-30T02:10:02.179Z,40.89
2023-01-30T02:11:02.227Z,40.89
2023-01-30T02:12:02.136Z,40.89
2023-01-30T02:13:02.128Z,41.20
2023-01-30T02:14:02.121Z,41.09
2023-01-30T02:15:02.125Z,40.99
2023-01-30T02:16:02.113Z,40.89
2023-01-30T02:17:02.076Z,40.68
2023-01-30T02:18:02.059Z,40.68
2023-01-30T02:19:02.046Z,40.47
2023-01-30T02:20:02.044Z,40.47
2023-01-30T02:21:02.035Z,40.26
2023-01-30T02:22:02.035Z,39.95
2023-01-30T02:23:01.989Z,39.65
2023-01-30T02:24:01.988Z,39.34
2023-01-30T02:25:01.965Z,39.54
2023-01-30T02:26:01.987Z,39.65
2023-01-30T02:27:01.939Z,39.34
2023-01-30T02:28:01.938Z,39.03
2023-01-30T02:29:01.926Z,38.71
2023-01-30T02:30:01.930Z,38.40
2023-01-30T02:31:01.999Z,38.51
2023-01-30T02:32:01.923Z,38.30
2023-01-30T02:33:01.860Z,38.30
2023-01-30T02:34:01.861Z,38.30
2023-01-30T02:35:01.836Z,38.20
2023-01-30T02:36:01.851Z,38.09
2023-01-30T02:37:01.814Z,37.88
2023-01-30T02:38:01.821Z,37.78
2023-01-30T02:39:01.785Z,37.47
2023-01-30T02:40:01.804Z,37.37
2023-01-30T02:41:01.779Z,37.37
2023-01-30T02:42:01.757Z,37.47
2023-01-30T02:43:01.741Z,37.57
2023-01-30T02:44:01.723Z,37.57
2023-01-30T02:45:01.708Z,37.37
2023-01-30T02:46:01.749Z,37.37
2023-01-30T02:47:01.693Z,37.47
2023-01-30T02:48:01.667Z,37.57
2023-01-30T02:49:01.650Z,37.26
2023-01-30T02:50:01.642Z,37.16
2023-01-30T02:51:01.654Z,37.16
2023-01-30T02:52:01.632Z,36.96
2023-01-30T02:53:01.643Z,36.75
2023-01-30T02:54:01.601Z,36.75
2023-01-30T02:55:01.589Z,36.75
2023-01-30T02:56:01.584Z,36.75
2023-01-30T02:57:01.589Z,36.44
2023-01-30T02:58:01.580Z,36.42
2023-01-30T02:59:01.561Z,36.44
2023-01-30T03:00:04.626Z,36.65
2023-01-30T03:01:01.517Z,36.83
2023-01-30T03:02:01.515Z,36.83
2023-01-30T03:03:01.485Z,36.65
2023-01-30T03:04:01.495Z,36.65
2023-01-30T03:05:01.448Z,36.63
2023-01-30T03:06:01.451Z,36.83
2023-01-30T03:07:01.445Z,36.94
2023-01-30T03:08:01.411Z,36.94
2023-01-30T03:09:01.401Z,36.94
2023-01-30T03:10:01.399Z,37.15
2023-01-30T03:11:01.367Z,37.25
2023-01-30T03:12:01.379Z,37.25
2023-01-30T03:13:01.350Z,37.35
2023-01-30T03:14:01.345Z,37.25
2023-01-30T03:15:01.319Z,37.35
2023-01-30T03:16:01.362Z,37.15
2023-01-30T03:17:01.299Z,37.15
2023-01-30T03:18:01.303Z,37.15
2023-01-30T03:19:01.259Z,37.04
2023-01-30T03:20:01.296Z,37.15
2023-01-30T03:21:01.245Z,37.04
2023-01-30T03:22:01.239Z,36.83
2023-01-30T03:23:01.224Z,37.04
2023-01-30T03:24:01.199Z,36.94
2023-01-30T03:25:01.191Z,37.04
2023-01-30T03:26:01.170Z,36.94
2023-01-30T03:27:01.174Z,36.94
2023-01-30T03:28:01.149Z,36.63
2023-01-30T03:29:01.137Z,36.94
2023-01-30T03:30:01.125Z,37.15
2023-01-30T03:31:01.203Z,37.25
2023-01-30T03:32:01.168Z,37.25
2023-01-30T03:33:01.079Z,37.35
2023-01-30T03:34:01.091Z,37.35
2023-01-30T03:35:01.050Z,37.35
2023-01-30T03:36:01.044Z,37.35
2023-01-30T03:37:01.074Z,37.25
2023-01-30T03:38:01.010Z,37.04
2023-01-30T03:39:01.000Z,37.15
2023-01-30T03:40:01.021Z,37.23
2023-01-30T03:41:00.973Z,37.02
2023-01-30T03:42:00.986Z,36.83
2023-01-30T03:43:00.953Z,36.00
2023-01-30T03:44:00.940Z,35.49
2023-01-30T03:45:00.921Z,34.66
2023-01-30T03:46:00.925Z,34.14
2023-01-30T03:47:00.911Z,33.83
2023-01-30T03:48:00.895Z,33.52
2023-01-30T03:49:00.873Z,32.90
2023-01-30T03:50:00.862Z,32.80
2023-01-30T03:51:00.841Z,32.28
2023-01-30T03:52:00.879Z,32.18
2023-01-30T03:53:00.819Z,31.76
2023-01-30T03:54:00.817Z,31.56
2023-01-30T03:55:00.806Z,31.14
2023-01-30T03:56:00.779Z,30.83
2023-01-30T03:57:00.782Z,30.63
2023-01-30T03:58:00.764Z,30.63
2023-01-30T03:59:00.731Z,30.52
2023-01-30T04:00:00.752Z,30.11
2023-01-30T04:01:00.760Z,30.11
2023-01-30T04:02:00.725Z,29.90
2023-01-30T04:03:00.692Z,29.80
2023-01-30T04:04:00.683Z,29.59
2023-01-30T04:05:00.682Z,29.28
2023-01-30T04:06:00.651Z,29.49
2023-01-30T04:07:00.654Z,29.38
2023-01-30T04:08:00.620Z,29.17
2023-01-30T04:09:00.610Z,29.28
2023-01-30T04:10:00.621Z,29.17
2023-01-30T04:11:00.583Z,29.38
2023-01-30T04:12:00.593Z,29.49
2023-01-30T04:13:00.582Z,29.49
2023-01-30T04:14:00.549Z,29.58
2023-01-30T04:15:00.541Z,29.68
2023-01-30T04:16:00.526Z,29.79
2023-01-30T04:17:00.537Z,29.69
2023-01-30T04:18:00.491Z,29.58
2023-01-30T04:19:00.491Z,29.58
2023-01-30T04:20:00.462Z,29.49
2023-01-30T04:21:00.463Z,29.37
2023-01-30T04:22:00.472Z,29.47
2023-01-30T04:23:00.427Z,29.47
2023-01-30T04:24:00.414Z,29.58
2023-01-30T04:25:00.394Z,29.68
2023-01-30T04:26:00.398Z,29.58
2023-01-30T04:27:00.405Z,29.58
2023-01-30T04:28:00.382Z,29.58
2023-01-30T04:29:00.338Z,29.58
2023-01-30T04:30:00.347Z,29.47
2023-01-30T04:31:00.381Z,29.37
2023-01-30T04:32:00.325Z,29.37
2023-01-30T04:33:00.289Z,28.96
2023-01-30T04:34:00.284Z,28.75
2023-01-30T04:35:00.273Z,28.34
2023-01-30T04:36:00.280Z,28.03
2023-01-30T04:37:00.275Z,27.61
2023-01-30T04:38:00.239Z,27.51
2023-01-30T04:39:00.224Z,27.20
2023-01-30T04:40:00.194Z,27.09
2023-01-30T04:41:00.219Z,26.89
2023-01-30T04:42:00.195Z,26.78
2023-01-30T04:43:00.177Z,26.68
2023-01-30T04:44:00.164Z,26.37
2023-01-30T04:45:00.151Z,26.17
2023-01-30T04:46:00.180Z,25.96
2023-01-30T04:47:00.134Z,25.65
2023-01-30T04:48:00.121Z,25.02
2023-01-30T04:49:00.110Z,24.61
2023-01-30T04:50:00.159Z,24.10
2023-01-30T04:51:00.069Z,23.58
2023-01-30T04:52:00.103Z,23.16
2023-01-30T04:53:00.035Z,22.55
2023-01-30T04:54:00.030Z,22.44
2023-01-30T04:54:59.996Z,21.92
2023-01-30T04:56:00.003Z,21.72
2023-01-30T04:56:59.994Z,21.30
2023-01-30T04:57:59.958Z,21.20
2023-01-30T04:58:59.987Z,20.89
2023-01-30T04:59:59.954Z,20.79
2023-01-30T05:00:59.988Z,20.68
2023-01-30T05:02:00.009Z,20.48
2023-01-30T05:02:59.917Z,20.27
2023-01-30T05:03:59.895Z,20.37
2023-01-30T05:04:59.875Z,20.37
2023-01-30T05:05:59.869Z,20.06
2023-01-30T05:06:59.861Z,19.85
2023-01-30T05:07:59.848Z,19.75
2023-01-30T05:08:59.827Z,19.75
2023-01-30T05:09:59.829Z,19.65
2023-01-30T05:10:59.798Z,19.54
2023-01-30T05:11:59.808Z,19.35
2023-01-30T05:12:59.792Z,19.24
2023-01-30T05:13:59.755Z,19.34
2023-01-30T05:14:59.774Z,19.02
2023-01-30T05:15:59.741Z,19.14
2023-01-30T05:16:59.743Z,18.92
2023-01-30T05:17:59.726Z,18.82
2023-01-30T05:18:59.703Z,18.82
2023-01-30T05:19:59.698Z,18.72
2023-01-30T05:20:59.676Z,18.62
2023-01-30T05:21:59.646Z,18.62
2023-01-30T05:22:59.657Z,18.62
2023-01-30T05:23:59.634Z,18.51
2023-01-30T05:24:59.607Z,18.62
2023-01-30T05:25:59.598Z,18.72
2023-01-30T05:26:59.581Z,18.52
2023-01-30T05:27:59.597Z,18.62
2023-01-30T05:28:59.572Z,18.62
2023-01-30T05:29:59.553Z,18.51
2023-01-30T05:30:59.567Z,18.51
2023-01-30T05:31:59.558Z,18.30
2023-01-30T05:32:59.536Z,18.62
2023-01-30T05:33:59.499Z,18.51
2023-01-30T05:34:59.488Z,18.51
2023-01-30T05:35:59.467Z,18.51
2023-01-30T05:36:59.478Z,18.62
2023-01-30T05:37:59.562Z,18.62
2023-01-30T05:38:59.454Z,18.41
2023-01-30T05:39:59.414Z,18.51
2023-01-30T05:40:59.406Z,18.51
2023-01-30T05:41:59.398Z,18.41
2023-01-30T05:42:59.387Z,18.51
2023-01-30T05:43:59.364Z,18.30
2023-01-30T05:44:59.372Z,18.30
2023-01-30T05:45:59.326Z,18.30
2023-01-30T05:46:59.325Z,18.29
2023-01-30T05:48:01.536Z,18.19
2023-01-30T05:48:59.311Z,18.19
2023-01-30T05:49:59.288Z,17.99
2023-01-30T05:50:59.277Z,17.99
2023-01-30T05:51:59.247Z,18.09
2023-01-30T05:52:59.282Z,17.99
2023-01-30T05:53:59.240Z,17.99
2023-01-30T05:54:59.233Z,17.99
2023-01-30T05:55:59.187Z,17.88
2023-01-30T05:56:59.218Z,17.68
2023-01-30T05:57:59.189Z,17.68
2023-01-30T05:58:59.169Z,17.68
2023-01-30T05:59:59.159Z,17.47
2023-01-30T06:00:59.138Z,17.47
2023-01-30T06:01:59.128Z,17.47
2023-01-30T06:02:59.211Z,17.36
2023-01-30T06:03:59.137Z,17.16
2023-01-30T06:04:59.101Z,17.16
2023-01-30T06:05:59.078Z,17.05
2023-01-30T06:06:59.125Z,17.05
2023-01-30T06:07:59.049Z,16.94
2023-01-30T06:08:59.059Z,16.94
2023-01-30T06:09:59.021Z,16.94
2023-01-30T06:10:59.000Z,16.94
2023-01-30T06:11:59.020Z,16.84
2023-01-30T06:12:59.008Z,16.94
2023-01-30T06:13:58.958Z,16.94
2023-01-30T06:14:58.952Z,16.84
2023-01-30T06:15:58.972Z,16.74
2023-01-30T06:16:59.062Z,16.74
2023-01-30T06:17:58.962Z,16.63
2023-01-30T06:18:58.925Z,16.53
2023-01-30T06:19:58.887Z,16.63
2023-01-30T06:20:58.869Z,16.42
2023-01-30T06:21:58.850Z,16.42
2023-01-30T06:22:58.851Z,16.32
2023-01-30T06:23:58.822Z,16.31
2023-01-30T06:24:58.829Z,16.52
2023-01-30T06:25:58.792Z,16.31
2023-01-30T06:26:58.798Z,16.21
2023-01-30T06:27:58.817Z,16.31
2023-01-30T06:28:58.771Z,16.21
2023-01-30T06:29:58.754Z,16.11
2023-01-30T06:30:58.811Z,16.11
2023-01-30T06:31:58.724Z,16.00
2023-01-30T06:32:58.728Z,16.00
2023-01-30T06:33:58.690Z,15.90
2023-01-30T06:34:58.686Z,15.90
2023-01-30T06:35:58.675Z,15.80
2023-01-30T06:36:58.660Z,15.70
2023-01-30T06:37:58.670Z,15.70
2023-01-30T06:38:58.654Z,15.49
2023-01-30T06:39:58.620Z,15.80
2023-01-30T06:40:58.607Z,15.70
2023-01-30T06:41:58.596Z,15.70
2023-01-30T06:42:58.623Z,15.70
2023-01-30T06:43:58.571Z,15.59
2023-01-30T06:44:58.551Z,15.59
2023-01-30T06:45:58.592Z,15.59
2023-01-30T06:46:58.547Z,15.49
2023-01-30T06:47:58.524Z,15.48
2023-01-30T06:48:58.536Z,15.69
2023-01-30T06:49:58.492Z,15.59
2023-01-30T06:50:58.534Z,15.59
2023-01-30T06:51:58.463Z,15.79
2023-01-30T06:52:58.522Z,15.89
2023-01-30T06:53:58.423Z,15.89
2023-01-30T06:54:58.432Z,15.89
2023-01-30T06:55:58.414Z,15.89
2023-01-30T06:56:58.392Z,15.89
2023-01-30T06:57:58.391Z,16.10
2023-01-30T06:58:58.363Z,16.00
2023-01-30T06:59:58.341Z,16.20
2023-01-30T07:00:58.341Z,16.20
2023-01-30T07:01:58.381Z,16.20
2023-01-30T07:02:58.352Z,16.31
2023-01-30T07:03:58.335Z,16.41
2023-01-30T07:04:58.322Z,16.52
2023-01-30T07:05:58.284Z,16.52
2023-01-30T07:06:58.276Z,16.41
2023-01-30T07:07:58.265Z,16.62
2023-01-30T07:08:58.244Z,16.72
2023-01-30T07:10:07.338Z,16.72
2023-01-30T07:10:59.212Z,16.72
2023-01-30T07:11:58.186Z,16.93
2023-01-30T07:12:58.183Z,17.03
2023-01-30T07:13:58.215Z,16.93
2023-01-30T07:14:58.155Z,17.03
2023-01-30T07:15:58.157Z,16.93
2023-01-30T07:16:58.177Z,16.92
2023-01-30T07:17:58.102Z,17.03
2023-01-30T07:18:58.112Z,17.02
2023-01-30T07:19:58.094Z,16.82
2023-01-30T07:20:58.076Z,16.93
2023-01-30T07:21:58.053Z,17.02
2023-01-30T07:22:58.044Z,17.13
2023-01-30T07:23:58.057Z,17.23
2023-01-30T07:24:58.034Z,17.02
2023-01-30T07:25:58.003Z,17.02
2023-01-30T07:26:58.004Z,17.23
2023-01-30T07:27:57.976Z,17.13
2023-01-30T07:28:58.037Z,17.44
2023-01-30T07:29:57.970Z,17.13
2023-01-30T07:30:57.998Z,17.13
2023-01-30T07:31:57.960Z,17.23
2023-01-30T07:32:57.947Z,17.23
2023-01-30T07:33:57.903Z,17.33
2023-01-30T07:34:57.903Z,17.33
2023-01-30T07:35:57.873Z,17.44
2023-01-30T07:36:57.882Z,17.33
2023-01-30T07:37:57.865Z,17.44
2023-01-30T07:38:57.870Z,17.64
2023-01-30T07:39:57.897Z,17.74
2023-01-30T07:40:57.817Z,17.95
2023-01-30T07:41:57.804Z,18.16
2023-01-30T07:42:57.779Z,18.26
2023-01-30T07:43:57.784Z,18.26
2023-01-30T07:44:57.791Z,18.47
2023-01-30T07:45:57.738Z,18.88
2023-01-30T07:46:57.853Z,19.09
2023-01-30T07:47:57.719Z,19.40
2023-01-30T07:48:59.761Z,20.01
2023-01-30T07:49:57.787Z,20.42
2023-01-30T07:50:57.696Z,20.42
2023-01-30T07:51:57.688Z,21.04
2023-01-30T07:52:57.690Z,21.86
2023-01-30T07:53:57.739Z,22.17
2023-01-30T07:54:59.488Z,22.58
2023-01-30T07:55:57.640Z,23.31
2023-01-30T07:56:57.614Z,24.13
2023-01-30T07:57:57.594Z,25.06
2023-01-30T07:58:57.617Z,25.89
2023-01-30T07:59:57.646Z,26.09
2023-01-30T08:00:57.621Z,26.09
2023-01-30T08:01:57.552Z,26.61
2023-01-30T08:02:57.542Z,27.02
2023-01-30T08:03:57.542Z,27.64
2023-01-30T08:04:57.580Z,27.53
2023-01-30T08:05:57.490Z,27.64
2023-01-30T08:06:57.512Z,27.64
2023-01-30T08:07:57.460Z,27.43
2023-01-30T08:08:57.492Z,27.95
2023-01-30T08:09:57.446Z,27.95
2023-01-30T08:10:57.477Z,28.16
2023-01-30T08:11:57.487Z,29.29
2023-01-30T08:12:57.400Z,28.77
2023-01-30T08:13:57.398Z,29.19
2023-01-30T08:14:57.381Z,29.29
2023-01-30T08:15:57.349Z,28.98
2023-01-30T08:16:57.359Z,29.39
2023-01-30T08:17:57.373Z,29.80
2023-01-30T08:18:57.339Z,29.49
2023-01-30T08:19:57.322Z,29.49
2023-01-30T08:20:57.307Z,29.19
2023-01-30T08:21:57.292Z,29.49
2023-01-30T08:22:57.269Z,29.70
2023-01-30T08:23:59.439Z,29.29
2023-01-30T08:24:57.290Z,29.29
2023-01-30T08:25:57.222Z,29.39
2023-01-30T08:26:57.240Z,29.08
2023-01-30T08:27:57.195Z,29.19
2023-01-30T08:28:57.200Z,29.39
2023-01-30T08:29:57.193Z,29.39
2023-01-30T08:30:57.308Z,29.49
2023-01-30T08:31:57.160Z,29.49
2023-01-30T08:32:57.142Z,28.88
2023-01-30T08:33:57.141Z,29.08
2023-01-30T08:34:57.111Z,28.98
2023-01-30T08:35:57.105Z,29.60
2023-01-30T08:36:57.080Z,29.80
2023-01-30T08:37:57.064Z,30.22
2023-01-30T08:38:57.077Z,29.90
2023-01-30T08:39:57.065Z,31.15
2023-01-30T08:40:57.031Z,31.66
2023-01-30T08:41:57.027Z,31.44
2023-01-30T08:42:57.015Z,31.56
2023-01-30T08:43:56.988Z,31.44
2023-01-30T08:44:56.989Z,31.34
2023-01-30T08:45:56.968Z,31.96
2023-01-30T08:46:56.961Z,32.68
2023-01-30T08:47:56.939Z,33.61
2023-01-30T08:48:56.931Z,33.61
2023-01-30T08:49:56.932Z,34.22
2023-01-30T08:50:56.939Z,35.25
2023-01-30T08:51:56.894Z,35.36
2023-01-30T08:52:56.894Z,36.60
2023-01-30T08:53:56.895Z,37.11
2023-01-30T08:54:56.865Z,37.52
2023-01-30T08:55:56.903Z,37.32
2023-01-30T08:56:56.819Z,37.83
2023-01-30T08:57:56.893Z,37.63
2023-01-30T08:58:56.794Z,38.45
2023-01-30T08:59:56.801Z,39.07
2023-01-30T09:02:08.235Z,41.32
2023-01-30T09:03:06.566Z,42.45
2023-01-30T09:04:06.543Z,41.94
2023-01-30T09:05:06.695Z,42.86
2023-01-30T09:06:06.522Z,42.86
2023-01-30T09:07:06.504Z,43.90
2023-01-30T09:08:06.488Z,45.54
2023-01-30T09:09:06.479Z,45.44
2023-01-30T09:10:06.491Z,45.34
2023-01-30T09:11:06.459Z,45.65
2023-01-30T09:12:06.445Z,47.71
2023-01-30T09:13:06.426Z,47.60
2023-01-30T09:14:06.406Z,48.63
2023-01-30T09:15:06.427Z,48.63
2023-01-30T09:16:06.379Z,49.66
2023-01-30T09:17:06.399Z,52.24
2023-01-30T09:18:06.368Z,52.34
2023-01-30T09:19:06.349Z,52.22
2023-01-30T09:20:06.352Z,55.64
2023-01-30T09:21:06.327Z,56.46
2023-01-30T09:22:06.335Z,56.98
2023-01-30T09:23:06.300Z,59.25
2023-01-30T09:24:06.266Z,59.04
2023-01-30T09:25:06.286Z,61.82
2023-01-30T09:26:06.246Z,63.06
2023-01-30T09:27:06.237Z,64.50
2023-01-30T09:28:06.219Z,63.37
2023-01-30T09:29:06.227Z,63.89
2023-01-30T09:30:06.207Z,64.81
2023-01-30T09:31:06.253Z,63.99
2023-01-30T09:32:06.178Z,64.19
2023-01-30T09:33:06.157Z,65.02
2023-01-30T09:34:06.158Z,65.12
2023-01-30T09:35:06.158Z,65.33
2023-01-30T09:36:06.141Z,67.08
2023-01-30T09:37:06.127Z,67.70
2023-01-30T09:38:06.089Z,69.86
2023-01-30T09:39:06.077Z,69.86
2023-01-30T09:40:06.094Z,70.37
2023-01-30T09:41:06.048Z,71.20
2023-01-30T09:42:06.055Z,71.48
2023-01-30T09:43:06.034Z,70.65
2023-01-30T09:44:06.011Z,71.17
2023-01-30T09:45:06.021Z,72.81
2023-01-30T09:46:06.079Z,72.92
2023-01-30T09:47:05.969Z,72.92
2023-01-30T09:48:05.959Z,72.71
2023-01-30T09:49:05.944Z,72.81
2023-01-30T09:50:05.944Z,71.58
2023-01-30T09:51:05.922Z,72.92
2023-01-30T09:52:05.899Z,71.89
2023-01-30T09:53:05.885Z,73.43
2023-01-30T09:54:05.876Z,72.47
2023-01-30T09:55:05.878Z,76.18
2023-01-30T09:56:05.852Z,75.67
2023-01-30T09:57:05.840Z,75.97
2023-01-30T09:58:05.814Z,76.70
2023-01-30T09:59:05.813Z,78.03
2023-01-30T10:00:05.816Z,77.62
2023-01-30T10:01:05.779Z,78.86
2023-01-30T10:02:05.760Z,79.47
2023-01-30T10:03:05.853Z,78.86
2023-01-30T10:04:05.764Z,78.34
2023-01-30T10:05:05.809Z,78.86
2023-01-30T10:06:05.710Z,80.30
2023-01-30T10:07:05.703Z,79.79
2023-01-30T10:08:05.690Z,79.88
2023-01-30T10:09:05.668Z,80.09
2023-01-30T10:10:05.710Z,80.61
2023-01-30T10:11:10.363Z,81.43
2023-01-30T10:12:06.628Z,78.03
2023-01-30T10:13:05.620Z,81.12
2023-01-30T10:14:05.603Z,81.95
2023-01-30T10:15:05.629Z,82.77
2023-01-30T10:16:05.609Z,83.39
2023-01-30T10:17:05.570Z,82.56
2023-01-30T10:18:05.554Z,83.80
2023-01-30T10:19:05.560Z,84.00
2023-01-30T10:20:05.521Z,83.90
2023-01-30T10:21:05.543Z,82.25
2023-01-30T10:22:05.493Z,82.46
2023-01-30T10:23:05.541Z,82.67
2023-01-30T10:24:05.489Z,86.16
2023-01-30T10:25:05.459Z,84.42
2023-01-30T10:26:05.462Z,83.59
2023-01-30T10:27:05.430Z,84.52
2023-01-30T10:28:05.416Z,83.90
2023-01-30T10:29:07.782Z,85.14
2023-01-30T10:30:05.378Z,85.55
2023-01-30T10:31:05.450Z,84.21
2023-01-30T10:32:05.381Z,85.34
2023-01-30T10:33:05.359Z,86.27
2023-01-30T10:34:05.331Z,86.68
2023-01-30T10:35:05.335Z,84.93
2023-01-30T10:36:05.326Z,85.34
2023-01-30T10:37:05.331Z,85.55
2023-01-30T10:38:05.324Z,85.65
2023-01-30T10:39:05.278Z,88.12
2023-01-30T10:40:05.250Z,89.15
2023-01-30T10:41:05.242Z,88.12
2023-01-30T10:42:05.247Z,88.23
2023-01-30T10:43:05.236Z,86.68
2023-01-30T10:44:05.195Z,88.43
2023-01-30T10:45:05.181Z,89.87
2023-01-30T10:46:05.184Z,89.25
2023-01-30T10:47:05.187Z,88.74
2023-01-30T10:48:05.141Z,90.08
2023-01-30T10:49:05.145Z,89.67
2023-01-30T10:50:05.122Z,91.21
2023-01-30T10:51:05.118Z,90.69
2023-01-30T10:52:05.134Z,92.24
2023-01-30T10:53:05.085Z,91.62
2023-01-30T10:54:05.074Z,90.39
2023-01-30T10:55:05.061Z,89.97
2023-01-30T10:56:05.049Z,91.31
2023-01-30T10:57:05.060Z,89.56
2023-01-30T10:58:05.003Z,89.56
2023-01-30T10:59:04.992Z,90.90
2023-01-30T11:00:04.999Z,91.52
2023-01-30T11:01:04.973Z,92.44
2023-01-30T11:02:04.997Z,90.80
2023-01-30T11:03:05.000Z,93.06
2023-01-30T11:04:04.933Z,92.96
2023-01-30T11:05:04.921Z,92.44
2023-01-30T11:06:04.905Z,91.83
2023-01-30T11:07:04.919Z,92.14
2023-01-30T11:08:04.873Z,92.86
2023-01-30T11:09:04.866Z,91.93
2023-01-30T11:10:04.864Z,91.83
2023-01-30T11:11:04.833Z,93.37
2023-01-30T11:12:04.840Z,92.03
2023-01-30T11:13:04.814Z,92.86
2023-01-30T11:14:04.824Z,92.55
2023-01-30T11:15:04.798Z,92.34
2023-01-30T11:16:04.787Z,93.68
2023-01-30T11:17:04.772Z,92.44
2023-01-30T11:18:27.746Z,92.82
2023-01-30T11:19:22.450Z,94.26
2023-01-30T11:20:05.736Z,94.26
2023-01-30T11:21:04.705Z,94.36
2023-01-30T11:22:04.704Z,95.59
2023-01-30T11:23:04.712Z,94.05
2023-01-30T11:24:04.659Z,94.77
2023-01-30T11:25:04.676Z,95.08
2023-01-30T11:26:11.348Z,94.01
2023-01-30T11:27:05.703Z,95.45
2023-01-30T11:28:04.615Z,95.86
2023-01-30T11:29:04.596Z,96.21
2023-01-30T11:30:04.575Z,96.00
2023-01-30T11:31:04.586Z,95.70
2023-01-30T11:32:04.635Z,95.90
2023-01-30T11:33:04.536Z,95.18
2023-01-30T11:34:04.528Z,96.00
2023-01-30T11:35:04.535Z,95.59
2023-01-30T11:36:05.444Z,95.08
2023-01-30T11:37:04.497Z,95.70
2023-01-30T11:38:04.471Z,96.11
2023-01-30T11:39:04.456Z,94.67
2023-01-30T11:40:04.438Z,94.77
2023-01-30T11:41:04.439Z,96.11
2023-01-30T11:42:04.439Z,95.90
2023-01-30T11:43:04.414Z,96.21
2023-01-30T11:44:04.395Z,95.90
2023-01-30T11:45:16.546Z,94.77
2023-01-30T11:46:05.390Z,95.80
2023-01-30T11:47:04.400Z,95.70
2023-01-30T11:48:05.028Z,95.90
2023-01-30T11:49:33.701Z,96.00
2023-01-30T11:50:21.604Z,96.52
2023-01-30T11:51:05.289Z,96.21
2023-01-30T11:52:04.330Z,96.00
2023-01-30T11:53:04.272Z,97.44
2023-01-30T11:54:04.249Z,97.65
2023-01-30T11:55:04.247Z,97.14
2023-01-30T11:56:08.323Z,98.68
2023-01-30T11:57:04.218Z,97.86
2023-01-30T11:58:04.199Z,99.40
2023-01-30T11:59:04.179Z,98.27
2023-01-30T12:00:04.198Z,98.47
2023-01-30T12:01:04.178Z,99.51
2023-01-30T12:02:04.179Z,98.88
2023-01-30T12:03:04.203Z,98.88
2023-01-30T12:04:04.141Z,98.88
2023-01-30T12:05:04.102Z,98.99
2023-01-30T12:06:04.119Z,99.30
2023-01-30T12:07:04.129Z,99.60
2023-01-30T12:08:04.058Z,99.71
2023-01-30T12:09:04.059Z,98.58
2023-01-30T12:10:04.049Z,99.51
2023-01-30T12:11:04.017Z,99.81
2023-01-30T12:12:04.029Z,98.37
2023-01-30T12:13:04.004Z,99.09
2023-01-30T12:14:03.981Z,99.51
2023-01-30T12:15:03.959Z,99.99
2023-01-30T12:16:03.998Z,99.91
2023-01-30T12:17:03.951Z,99.99
2023-01-30T12:18:03.931Z,99.99
2023-01-30T12:19:03.919Z,99.99
2023-01-30T12:20:03.918Z,99.91
2023-01-30T12:21:03.891Z,99.99
2023-01-30T12:22:03.890Z,99.99
2023-01-30T12:23:03.859Z,99.99
2023-01-30T12:24:03.850Z,99.99
2023-01-30T12:25:03.847Z,99.99
2023-01-30T12:26:03.825Z,99.99
2023-01-30T12:27:03.823Z,99.56
2023-01-30T12:28:03.796Z,99.99
2023-01-30T12:29:03.771Z,99.99
2023-01-30T12:30:03.766Z,99.99
2023-01-30T12:31:03.778Z,99.99
2023-01-30T12:32:03.762Z,99.99
2023-01-30T12:33:03.751Z,99.99
2023-01-30T12:34:03.743Z,99.97
2023-01-30T12:35:03.693Z,99.99
2023-01-30T12:36:03.705Z,99.99
2023-01-30T12:37:03.679Z,99.99
2023-01-30T12:38:03.660Z,99.99
2023-01-30T12:39:03.639Z,99.99
2023-01-30T12:40:03.639Z,99.99
2023-01-30T12:41:03.610Z,99.99
2023-01-30T12:42:03.620Z,99.99
2023-01-30T12:43:03.589Z,99.99
2023-01-30T12:44:03.594Z,99.99
2023-01-30T12:45:03.560Z,99.99
2023-01-30T12:46:03.580Z,99.99
2023-01-30T12:47:03.551Z,99.99
2023-01-30T12:48:03.519Z,99.99
2023-01-30T12:49:10.872Z,99.99
2023-01-30T12:50:04.508Z,99.98
2023-01-30T12:51:03.494Z,99.99
2023-01-30T12:52:03.503Z,99.99
2023-01-30T12:53:03.457Z,99.99